createdAt,value
2023-04-21T00:01:01.144Z,4.75
2023-04-21T00:03:28.945Z,5.22
2023-04-21T00:05:58.613Z,4.95
2023-04-21T00:08:28.811Z,5.57
2023-04-21T00:10:56.016Z,5.25
2023-04-21T00:13:23.840Z,5.32
2023-04-21T00:15:51.153Z,5.80
2023-04-21T00:18:18.304Z,5.30
2023-04-21T00:20:45.316Z,5.75
2023-04-21T00:23:12.395Z,5.93
2023-04-21T00:25:39.400Z,5.75
2023-04-21T00:28:06.421Z,5.65
2023-04-21T00:30:37.125Z,5.13
2023-04-21T00:33:05.115Z,5.72
2023-04-21T00:35:32.236Z,6.22
2023-04-21T00:37:59.422Z,5.75
2023-04-21T00:40:26.806Z,5.07
2023-04-21T00:42:53.790Z,5.97
2023-04-21T00:45:21.331Z,5.88
2023-04-21T00:47:48.585Z,5.57
2023-04-21T00:50:15.736Z,5.80
2023-04-21T00:52:44.689Z,6.95
2023-04-21T00:55:11.925Z,5.13
2023-04-21T00:57:39.039Z,5.95
2023-04-21T01:00:08.774Z,6.00
2023-04-21T01:02:38.828Z,6.32
2023-04-21T01:05:09.121Z,6.07
2023-04-21T01:07:39.023Z,6.30
2023-04-21T01:10:06.908Z,5.82
2023-04-21T01:12:35.782Z,6.28
2023-04-21T01:15:02.927Z,7.07
2023-04-21T01:17:31.314Z,6.70
2023-04-21T01:20:02.249Z,6.68
2023-04-21T01:22:30.201Z,6.47
2023-04-21T01:24:57.855Z,6.50
2023-04-21T01:27:26.838Z,7.00
2023-04-21T01:29:54.408Z,7.20
2023-04-21T01:32:29.036Z,7.40
2023-04-21T01:34:58.127Z,7.35
2023-04-21T01:37:29.931Z,7.00
2023-04-21T01:40:00.541Z,7.35
2023-04-21T01:42:29.831Z,7.13
2023-04-21T01:44:59.775Z,9.38
2023-04-21T01:47:27.105Z,12.80
2023-04-21T01:49:54.099Z,20.15
2023-04-21T01:52:21.713Z,27.95
2023-04-21T01:54:49.021Z,35.80
2023-04-21T01:57:17.451Z,38.28
2023-04-21T01:59:44.850Z,37.95
2023-04-21T02:02:12.167Z,34.47
2023-04-21T02:04:39.482Z,31.17
2023-04-21T02:07:06.785Z,31.42
2023-04-21T02:09:33.814Z,35.42
2023-04-21T02:12:02.024Z,34.55
2023-04-21T02:14:29.148Z,33.58
2023-04-21T02:16:56.326Z,32.15
2023-04-21T02:19:24.133Z,28.23
2023-04-21T02:21:51.525Z,23.15
2023-04-21T02:24:22.139Z,20.85
2023-04-21T02:26:49.528Z,18.88
2023-04-21T02:29:16.815Z,17.33
2023-04-21T02:31:54.635Z,15.07
2023-04-21T02:34:26.753Z,11.63
2023-04-21T02:36:53.895Z,10.30
2023-04-21T02:39:21.014Z,10.40
2023-04-21T02:41:48.227Z,8.98
2023-04-21T02:44:16.205Z,8.27
2023-04-21T02:46:43.781Z,8.48
2023-04-21T02:49:11.375Z,8.27
2023-04-21T02:51:38.329Z,8.25
2023-04-21T02:54:06.152Z,7.57
2023-04-21T02:56:34.681Z,9.20
2023-04-21T02:59:01.914Z,8.43
2023-04-21T03:01:28.931Z,8.63
2023-04-21T03:03:56.372Z,9.98
2023-04-21T03:06:23.711Z,9.07
2023-04-21T03:08:50.914Z,9.50
2023-04-21T03:11:17.731Z,9.38
2023-04-21T03:13:46.054Z,10.00
2023-04-21T03:16:13.465Z,10.00
2023-04-21T03:18:40.699Z,10.13
2023-04-21T03:21:07.787Z,8.85
2023-04-21T03:23:36.076Z,9.07
2023-04-21T03:26:07.950Z,8.80
2023-04-21T03:28:35.439Z,10.00
2023-04-21T03:31:03.284Z,8.43
2023-04-21T03:33:30.163Z,9.45
2023-04-21T03:35:57.161Z,9.50
2023-04-21T03:38:24.074Z,8.98
2023-04-21T03:40:51.175Z,9.55
2023-04-21T03:43:19.138Z,9.18
2023-04-21T03:45:46.258Z,8.45
2023-04-21T03:48:13.531Z,8.88
2023-04-21T03:50:40.593Z,9.23
2023-04-21T03:53:07.560Z,9.27
2023-04-21T03:55:34.623Z,8.73
2023-04-21T03:58:01.490Z,9.30
2023-04-21T04:00:28.566Z,8.55
2023-04-21T04:02:55.580Z,9.20
2023-04-21T04:05:22.837Z,9.52
2023-04-21T04:07:49.799Z,9.20
2023-04-21T04:10:16.790Z,8.98
2023-04-21T04:12:43.676Z,9.38
2023-04-21T04:15:10.985Z,8.80
2023-04-21T04:17:37.949Z,8.93
2023-04-21T04:20:08.375Z,10.55
2023-04-21T04:22:35.728Z,8.80
2023-04-21T04:25:02.778Z,9.45
2023-04-21T04:27:29.793Z,8.85
2023-04-21T04:29:57.807Z,8.48
2023-04-21T04:32:28.862Z,9.38
2023-04-21T04:34:56.069Z,9.20
2023-04-21T04:37:23.059Z,8.80
2023-04-21T04:39:53.801Z,9.25
2023-04-21T04:42:20.954Z,8.77
2023-04-21T04:44:48.153Z,9.23
2023-04-21T04:47:15.224Z,9.05
2023-04-21T04:49:42.095Z,10.13
2023-04-21T04:52:08.986Z,9.25
2023-04-21T04:54:36.293Z,10.93
2023-04-21T04:57:03.348Z,9.20
2023-04-21T04:59:31.151Z,8.90
2023-04-21T05:01:58.530Z,10.07
2023-04-21T05:04:26.321Z,9.63
2023-04-21T05:06:53.937Z,9.40
2023-04-21T05:09:20.889Z,9.02
2023-04-21T05:11:47.857Z,9.75
2023-04-21T05:14:14.678Z,9.82
2023-04-21T05:16:44.149Z,10.30
2023-04-21T05:19:11.084Z,9.07
2023-04-21T05:21:38.152Z,9.35
2023-04-21T05:24:05.372Z,9.00
2023-04-21T05:26:32.363Z,9.50
2023-04-21T05:28:59.333Z,10.07
2023-04-21T05:31:26.992Z,9.10
2023-04-21T05:33:53.930Z,9.25
2023-04-21T05:36:21.109Z,9.43
2023-04-21T05:38:47.968Z,9.57
2023-04-21T05:41:15.902Z,8.82
2023-04-21T05:43:42.797Z,9.02
2023-04-21T05:46:13.509Z,9.90
2023-04-21T05:48:40.535Z,9.70
2023-04-21T05:51:12.310Z,9.65
2023-04-21T05:53:40.184Z,9.93
2023-04-21T05:56:09.674Z,9.30
2023-04-21T05:58:37.554Z,9.00
2023-04-21T06:01:06.653Z,9.15
2023-04-21T06:03:34.384Z,8.95
2023-04-21T06:06:04.503Z,9.27
2023-04-21T06:08:32.558Z,9.35
2023-04-21T06:10:59.808Z,9.38
2023-04-21T06:13:27.779Z,8.73
2023-04-21T06:15:55.638Z,9.30
2023-04-21T06:18:24.025Z,9.55
2023-04-21T06:20:52.361Z,9.13
2023-04-21T06:23:19.312Z,9.85
2023-04-21T06:25:46.641Z,9.00
2023-04-21T06:28:13.859Z,9.05
2023-04-21T06:30:40.971Z,9.48
2023-04-21T06:33:08.035Z,9.07
2023-04-21T06:35:35.132Z,9.38
2023-04-21T06:38:02.501Z,8.88
2023-04-21T06:40:29.416Z,8.88
2023-04-21T06:42:56.344Z,8.80
2023-04-21T06:45:23.512Z,9.30
2023-04-21T06:47:51.066Z,8.57
2023-04-21T06:50:18.265Z,8.98
2023-04-21T06:52:45.384Z,8.75
2023-04-21T06:55:12.436Z,9.38
2023-04-21T06:57:39.377Z,9.65
2023-04-21T07:00:07.339Z,10.55
2023-04-21T07:02:34.323Z,8.35
2023-04-21T07:05:01.617Z,9.13
2023-04-21T07:07:28.688Z,9.60
2023-04-21T07:09:56.032Z,9.70
2023-04-21T07:12:23.185Z,8.25
2023-04-21T07:14:51.234Z,9.23
2023-04-21T07:17:18.162Z,8.95
2023-04-21T07:19:45.141Z,8.80
2023-04-21T07:22:12.097Z,8.68
2023-04-21T07:24:39.515Z,9.00
2023-04-21T07:27:06.623Z,8.85
2023-04-21T07:29:33.694Z,8.90
2023-04-21T07:32:00.730Z,9.00
2023-04-21T07:34:27.596Z,9.57
2023-04-21T07:36:56.476Z,8.88
2023-04-21T07:39:23.450Z,8.05
2023-04-21T07:41:50.764Z,8.95
2023-04-21T07:44:17.838Z,8.80
2023-04-21T07:46:45.102Z,8.52
2023-04-21T07:49:12.055Z,8.77
2023-04-21T07:51:40.226Z,8.68
2023-04-21T07:54:07.291Z,9.40
2023-04-21T07:56:34.612Z,8.52
2023-04-21T07:59:01.787Z,8.32
2023-04-21T08:01:28.666Z,8.02
2023-04-21T08:03:55.699Z,8.00
2023-04-21T08:06:22.936Z,7.72
2023-04-21T08:08:50.340Z,7.97
2023-04-21T08:11:17.495Z,8.40
2023-04-21T08:13:44.493Z,8.10
2023-04-21T08:16:11.552Z,7.30
2023-04-21T08:18:38.507Z,7.70
2023-04-21T08:21:05.989Z,8.10
2023-04-21T08:23:32.977Z,7.63
2023-04-21T08:26:01.705Z,7.65
2023-04-21T08:28:28.641Z,7.63
2023-04-21T08:30:55.642Z,8.23
2023-04-21T08:33:22.569Z,7.68
2023-04-21T08:36:02.376Z,8.30
2023-04-21T08:38:33.189Z,7.45
2023-04-21T08:41:00.380Z,7.10
2023-04-21T08:43:30.406Z,7.88
2023-04-21T08:46:00.031Z,8.10
2023-04-21T08:48:29.898Z,7.72
2023-04-21T08:50:57.987Z,7.03
2023-04-21T08:53:25.529Z,7.50
2023-04-21T08:56:09.989Z,7.28
2023-04-21T08:58:38.636Z,7.07
2023-04-21T09:01:06.039Z,6.95
2023-04-21T09:03:33.355Z,7.18
2023-04-21T09:06:06.531Z,6.97
2023-04-21T09:08:40.089Z,6.78
2023-04-21T09:11:07.366Z,7.03
2023-04-21T09:13:36.603Z,6.47
2023-04-21T09:16:16.589Z,7.03
2023-04-21T09:18:44.748Z,6.43
2023-04-21T09:21:17.829Z,6.32
2023-04-21T09:23:51.183Z,6.68
2023-04-21T09:26:21.286Z,6.90
2023-04-21T09:28:50.668Z,6.47
2023-04-21T09:31:24.600Z,6.10
2023-04-21T09:34:00.088Z,6.53
2023-04-21T09:36:32.057Z,5.95
2023-04-21T09:41:37.344Z,6.05
2023-04-21T09:44:04.983Z,6.18
2023-04-21T09:46:37.357Z,6.72
2023-04-21T09:49:05.830Z,6.22
2023-04-21T09:56:50.463Z,5.90
2023-04-21T09:59:27.545Z,6.25
2023-04-21T10:01:58.174Z,5.97
2023-04-21T10:04:26.688Z,6.15
2023-04-21T10:06:55.819Z,6.47
2023-04-21T10:09:25.754Z,6.00
2023-04-21T10:11:55.471Z,5.75
2023-04-21T10:14:22.648Z,5.13
2023-04-21T10:17:07.782Z,5.40
2023-04-21T10:19:40.605Z,5.70
2023-04-21T10:22:11.632Z,5.43
2023-04-21T10:24:43.010Z,5.82
2023-04-21T10:27:12.045Z,5.20
2023-04-21T10:29:55.711Z,5.07
2023-04-21T10:32:43.421Z,5.93
2023-04-21T10:35:22.540Z,5.60
2023-04-21T10:37:53.750Z,5.72
2023-04-21T10:40:47.203Z,5.35
2023-04-21T10:43:49.337Z,6.57
2023-04-21T10:46:49.689Z,6.47
2023-04-21T10:49:32.530Z,6.00
2023-04-21T10:51:59.741Z,5.75
2023-04-21T10:54:29.823Z,5.53
2023-04-21T10:56:59.236Z,5.47
2023-04-21T10:59:29.242Z,5.38
2023-04-21T11:01:57.352Z,5.13
2023-04-21T11:04:25.185Z,5.43
2023-04-21T11:07:13.679Z,6.47
2023-04-21T11:09:42.953Z,5.22
2023-04-21T11:12:18.286Z,6.32
2023-04-21T11:14:49.888Z,5.63
2023-04-21T11:17:20.146Z,5.68
2023-04-21T11:19:51.788Z,5.68
2023-04-21T11:22:23.409Z,5.38
2023-04-21T11:24:54.320Z,5.25
2023-04-21T11:27:24.866Z,4.88
2023-04-21T11:29:51.835Z,5.18
2023-04-21T11:32:19.156Z,5.40
2023-04-21T11:34:46.576Z,5.47
2023-04-21T11:37:30.028Z,5.28
2023-04-21T11:39:59.544Z,5.47
2023-04-21T11:42:27.194Z,5.05
2023-04-21T11:44:56.792Z,5.20
2023-04-21T11:47:26.325Z,6.18
2023-04-21T11:49:59.414Z,5.35
2023-04-21T11:52:28.124Z,6.38
2023-04-21T11:55:00.404Z,5.22
2023-04-21T11:57:29.744Z,6.07
2023-04-21T12:00:08.469Z,5.10
2023-04-21T12:02:35.986Z,5.40
2023-04-21T12:05:07.564Z,5.55
2023-04-21T12:07:37.912Z,5.20
2023-04-21T12:10:22.379Z,5.28
2023-04-21T12:12:49.483Z,4.63
2023-04-21T12:15:22.829Z,5.03
2023-04-21T12:17:54.744Z,5.05
2023-04-21T12:20:24.368Z,5.47
2023-04-21T12:22:52.362Z,5.43
2023-04-21T12:25:19.895Z,4.72
2023-04-21T12:27:58.283Z,4.75
2023-04-21T12:30:25.517Z,4.97
2023-04-21T12:32:54.218Z,5.13
2023-04-21T12:35:23.142Z,4.90
2023-04-21T12:37:50.140Z,4.38
2023-04-21T12:40:17.105Z,4.70
2023-04-21T12:42:44.228Z,4.60
2023-04-21T12:45:11.657Z,4.40
2023-04-21T12:47:39.301Z,4.50
2023-04-21T12:50:07.162Z,4.43
2023-04-21T12:52:34.258Z,3.97
2023-04-21T12:55:01.312Z,4.13
2023-04-21T12:57:28.858Z,4.30
2023-04-21T12:59:55.946Z,4.03
2023-04-21T13:02:23.064Z,5.88
2023-04-21T13:04:50.243Z,3.97
2023-04-21T13:07:21.127Z,4.30
2023-04-21T13:09:48.148Z,4.80
2023-04-21T13:12:15.123Z,3.90
2023-04-21T13:14:42.053Z,5.03
2023-04-21T13:17:09.444Z,4.05
2023-04-21T13:19:36.475Z,4.45
2023-04-21T13:22:03.435Z,4.50
2023-04-21T13:24:31.008Z,4.18
2023-04-21T13:26:58.865Z,4.20
2023-04-21T13:29:30.253Z,3.85
2023-04-21T13:31:57.366Z,4.60
2023-04-21T13:34:24.521Z,4.70
2023-04-21T13:36:51.591Z,4.45
2023-04-21T13:39:18.476Z,4.20
2023-04-21T13:41:45.402Z,4.28
2023-04-21T13:44:12.424Z,4.38
2023-04-21T13:46:39.424Z,3.88
2023-04-21T13:49:06.632Z,4.38
2023-04-21T13:51:34.195Z,4.25
2023-04-21T13:54:01.144Z,4.13
2023-04-21T13:56:28.241Z,4.30
2023-04-21T13:58:55.889Z,4.30
2023-04-21T14:01:23.106Z,4.07
2023-04-21T14:03:50.177Z,3.80
2023-04-21T14:06:17.672Z,4.53
2023-04-21T14:08:44.641Z,4.15
2023-04-21T14:11:11.588Z,3.80
2023-04-21T14:13:47.759Z,3.85
2023-04-21T14:16:19.318Z,3.97
2023-04-21T14:18:47.415Z,4.50
2023-04-21T14:21:14.538Z,4.15
2023-04-21T14:23:41.717Z,3.85
2023-04-21T14:26:08.936Z,4.30
2023-04-21T14:28:35.908Z,4.85
2023-04-21T14:31:04.188Z,3.92
2023-04-21T14:33:33.102Z,4.30
2023-04-21T14:36:00.782Z,4.03
2023-04-21T14:38:29.607Z,4.07
2023-04-21T14:40:56.866Z,4.43
2023-04-21T14:43:23.966Z,3.83
2023-04-21T14:45:51.095Z,3.72
2023-04-21T14:48:18.555Z,4.00
2023-04-21T14:50:45.680Z,3.50
2023-04-21T14:53:12.659Z,4.38
2023-04-21T14:55:39.514Z,4.03
2023-04-21T14:58:07.338Z,4.13
2023-04-21T15:00:36.335Z,4.03
2023-04-21T15:03:03.597Z,3.92
2023-04-21T15:05:30.779Z,3.75
2023-04-21T15:07:57.642Z,3.45
2023-04-21T15:10:24.545Z,4.18
2023-04-21T15:12:51.573Z,3.78
2023-04-21T15:15:19.148Z,4.25
2023-04-21T15:17:46.085Z,3.58
2023-04-21T15:20:13.308Z,4.28
2023-04-21T15:22:40.259Z,3.63
2023-04-21T15:25:07.661Z,3.70
2023-04-21T15:27:34.789Z,3.90
2023-04-21T15:30:04.092Z,4.10
2023-04-21T15:32:31.084Z,3.72
2023-04-21T15:34:58.030Z,4.38
2023-04-21T15:37:25.930Z,4.97
2023-04-21T15:39:53.151Z,4.03
2023-04-21T15:42:20.636Z,3.88
2023-04-21T15:44:47.745Z,4.10
2023-04-21T15:47:17.054Z,4.22
2023-04-21T15:49:44.018Z,3.65
2023-04-21T15:52:11.216Z,3.92
2023-04-21T15:54:38.516Z,3.95
2023-04-21T15:57:05.875Z,4.53
2023-04-21T15:59:32.999Z,4.15
2023-04-21T16:02:00.216Z,11.18
2023-04-21T16:04:27.406Z,5.50
2023-04-21T16:06:54.655Z,4.60
2023-04-21T16:09:21.719Z,3.80
2023-04-21T16:11:52.451Z,4.80
2023-04-21T16:14:19.560Z,3.60
2023-04-21T16:16:46.610Z,3.65
2023-04-21T16:19:13.804Z,3.95
2023-04-21T16:21:41.959Z,14.00
2023-04-21T16:24:09.228Z,5.05
2023-04-21T16:26:36.880Z,3.80
2023-04-21T16:29:03.992Z,3.22
2023-04-21T16:31:31.349Z,7.43
2023-04-21T16:34:00.105Z,4.15
2023-04-21T16:36:34.134Z,4.10
2023-04-21T16:39:01.182Z,4.20
2023-04-21T16:41:28.093Z,3.47
2023-04-21T16:43:55.178Z,3.72
2023-04-21T16:46:22.275Z,3.85
2023-04-21T16:48:49.372Z,4.10
2023-04-21T16:51:17.159Z,3.55
2023-04-21T16:53:44.171Z,9.65
2023-04-21T16:56:11.121Z,5.85
2023-04-21T16:58:38.130Z,4.18
2023-04-21T17:01:07.783Z,3.70
2023-04-21T17:03:35.150Z,6.43
2023-04-21T17:06:05.079Z,4.32
2023-04-21T17:08:32.007Z,3.72
2023-04-21T17:11:00.019Z,3.97
2023-04-21T17:13:27.257Z,4.60
2023-04-21T17:15:54.253Z,4.15
2023-04-21T17:18:21.330Z,3.70
2023-04-21T17:20:48.529Z,3.67
2023-04-21T17:23:15.659Z,3.70
2023-04-21T17:25:42.671Z,5.03
2023-04-21T17:28:09.616Z,4.30
2023-04-21T17:30:36.612Z,4.13
2023-04-21T17:33:15.424Z,4.07
2023-04-21T17:35:52.456Z,4.05
2023-04-21T17:38:29.414Z,4.00
2023-04-21T17:40:56.393Z,3.85
2023-04-21T17:43:23.486Z,3.42
2023-04-21T17:45:51.264Z,3.33
2023-04-21T17:48:18.623Z,3.17
2023-04-21T17:50:45.814Z,4.05
2023-04-21T17:53:12.921Z,3.63
2023-04-21T17:55:42.663Z,4.63
2023-04-21T17:58:12.270Z,4.75
2023-04-21T18:00:40.162Z,4.07
2023-04-21T18:03:07.368Z,5.18
2023-04-21T18:05:34.926Z,4.88
2023-04-21T18:08:02.242Z,8.18
2023-04-21T18:10:29.885Z,5.40
2023-04-21T18:12:58.147Z,5.25
2023-04-21T18:15:25.118Z,4.72
2023-04-21T18:17:53.056Z,4.70
2023-04-21T18:20:20.647Z,4.40
2023-04-21T18:22:50.105Z,4.90
2023-04-21T18:25:27.362Z,4.57
2023-04-21T18:28:01.554Z,6.70
2023-04-21T18:30:28.526Z,5.35
2023-04-21T18:32:55.656Z,4.47
2023-04-21T18:35:22.855Z,4.25
2023-04-21T18:37:49.782Z,4.53
2023-04-21T18:40:16.959Z,4.82
2023-04-21T18:42:43.830Z,4.70
2023-04-21T18:45:11.451Z,4.93
2023-04-21T18:47:39.224Z,4.70
2023-04-21T18:50:08.647Z,4.80
2023-04-21T18:52:35.633Z,5.65
2023-04-21T18:55:02.751Z,4.60
2023-04-21T18:57:30.451Z,4.65
2023-04-21T18:59:57.354Z,4.93
2023-04-21T19:02:24.758Z,4.85
2023-04-21T19:04:52.454Z,5.07
2023-04-21T19:07:19.571Z,11.35
2023-04-21T19:09:46.684Z,6.20
2023-04-21T19:12:14.393Z,5.65
2023-04-21T19:14:47.266Z,5.75
2023-04-21T19:17:15.526Z,5.13
2023-04-21T19:19:42.736Z,5.28
2023-04-21T19:22:09.703Z,5.03
2023-04-21T19:24:36.870Z,5.00
2023-04-21T19:27:06.159Z,4.68
2023-04-21T19:29:33.549Z,4.47
2023-04-21T19:32:00.634Z,4.32
2023-04-21T19:34:27.894Z,4.82
2023-04-21T19:36:54.908Z,4.70
2023-04-21T19:39:21.895Z,4.60
2023-04-21T19:41:48.844Z,4.55
2023-04-21T19:44:15.917Z,4.57
2023-04-21T19:46:43.449Z,4.07
2023-04-21T19:49:14.085Z,4.93
2023-04-21T19:51:41.410Z,4.85
2023-04-21T19:54:12.194Z,4.45
2023-04-21T19:56:40.151Z,4.68
2023-04-21T19:59:07.733Z,4.75
2023-04-21T20:01:34.858Z,4.75
2023-04-21T20:04:03.292Z,4.53
2023-04-21T20:06:31.604Z,4.68
2023-04-21T20:08:58.792Z,4.60
2023-04-21T20:11:28.814Z,4.63
2023-04-21T20:13:56.187Z,4.32
2023-04-21T20:16:23.735Z,4.05
2023-04-21T20:18:50.765Z,4.20
2023-04-21T20:21:17.839Z,4.32
2023-04-21T20:23:44.848Z,4.10
2023-04-21T20:26:12.089Z,3.97
2023-04-21T20:28:39.091Z,4.22
2023-04-21T20:31:06.322Z,3.85
2023-04-21T20:33:33.323Z,4.03
2023-04-21T20:36:07.294Z,4.50
2023-04-21T20:38:35.332Z,3.75
2023-04-21T20:41:03.148Z,5.18
2023-04-21T20:43:33.061Z,4.10
2023-04-21T20:46:01.657Z,4.28
2023-04-21T20:48:28.653Z,4.68
2023-04-21T20:50:55.970Z,4.65
2023-04-21T20:53:23.911Z,3.60
2023-04-21T20:55:51.111Z,3.80
2023-04-21T20:58:18.024Z,4.15
2023-04-21T21:00:45.488Z,4.18
2023-04-21T21:03:13.786Z,4.15
2023-04-21T21:05:41.411Z,4.32
2023-04-21T21:08:09.090Z,4.00
2023-04-21T21:10:36.234Z,3.95
2023-04-21T21:13:04.370Z,4.60
2023-04-21T21:15:31.496Z,3.95
2023-04-21T21:17:58.858Z,4.03
2023-04-21T21:20:26.192Z,4.28
2023-04-21T21:22:53.202Z,5.18
2023-04-21T21:25:20.509Z,5.40
2023-04-21T21:27:47.473Z,5.32
2023-04-21T21:30:14.810Z,5.22
2023-04-21T21:32:41.811Z,5.50
2023-04-21T21:35:10.227Z,4.65
2023-04-21T21:37:38.289Z,4.82
2023-04-21T21:40:07.206Z,5.00
2023-04-21T21:42:34.533Z,4.55
2023-04-21T21:45:01.604Z,5.32
2023-04-21T21:47:28.773Z,5.03
2023-04-21T21:49:58.616Z,5.38
2023-04-21T21:52:26.352Z,5.57
2023-04-21T21:54:53.887Z,5.30
2023-04-21T21:57:21.754Z,6.35
2023-04-21T21:59:49.128Z,5.85
2023-04-21T22:02:16.686Z,5.85
2023-04-21T22:04:44.018Z,5.63
2023-04-21T22:07:11.157Z,5.53
2023-04-21T22:09:39.772Z,5.32
2023-04-21T22:12:07.447Z,5.05
2023-04-21T22:14:34.947Z,5.47
2023-04-21T22:17:02.867Z,4.97
2023-04-21T22:19:30.988Z,4.97
2023-04-21T22:21:58.049Z,5.25
2023-04-21T22:24:25.449Z,4.38
2023-04-21T22:26:52.416Z,5.28
2023-04-21T22:29:19.543Z,4.97
2023-04-21T22:31:47.195Z,4.95
2023-04-21T22:34:16.631Z,5.43
2023-04-21T22:36:43.661Z,5.32
2023-04-21T22:39:10.927Z,4.43
2023-04-21T22:41:39.108Z,4.93
2023-04-21T22:44:07.142Z,5.45
2023-04-21T22:46:34.466Z,5.43
2023-04-21T22:49:03.202Z,5.45
2023-04-21T22:51:32.529Z,4.88
2023-04-21T22:54:00.376Z,5.55
2023-04-21T22:56:30.065Z,5.10
2023-04-21T22:58:57.633Z,4.63
2023-04-21T23:01:24.701Z,5.80
2023-04-21T23:03:51.840Z,5.45
2023-04-21T23:06:19.292Z,5.22
2023-04-21T23:08:46.420Z,5.05
2023-04-21T23:11:14.137Z,5.20
2023-04-21T23:13:41.941Z,5.28
2023-04-21T23:16:08.947Z,5.20
2023-04-21T23:18:36.071Z,4.75
2023-04-21T23:21:03.064Z,4.90
2023-04-21T23:23:29.988Z,5.85
2023-04-21T23:25:56.911Z,5.30
2023-04-21T23:28:24.348Z,4.82
2023-04-21T23:30:51.360Z,5.68
2023-04-21T23:33:18.724Z,5.18
2023-04-21T23:35:45.962Z,4.82
2023-04-21T23:38:12.984Z,5.53
2023-04-21T23:40:40.118Z,4.97
2023-04-21T23:43:07.498Z,5.20
2023-04-21T23:45:34.770Z,5.15
2023-04-21T23:48:01.772Z,5.22
2023-04-21T23:50:29.092Z,5.00
2023-04-21T23:52:56.683Z,5.15
2023-04-21T23:55:23.884Z,5.15
2023-04-21T23:57:51.068Z,4.75
